sensor_id;sensor_type;location;lat;lon;timestamp;temperature;humidity
1888;DHT22;944;51.574;6.980;2022-07-01T05:31:46;15.10;99.90
1888;DHT22;944;51.574;6.980;2022-07-01T05:35:05;15.20;99.90
1888;DHT22;944;51.574;6.980;2022-07-01T05:38:13;15.10;99.90
1888;DHT22;944;51.574;6.980;2022-07-01T05:40:47;15.30;99.90
1888;DHT22;944;51.574;6.980;2022-07-01T05:43:44;15.40;99.90
1888;DHT22;944;51.574;6.980;2022-07-01T05:46:32;15.40;99.90
1888;DHT22;944;51.574;6.980;2022-07-01T05:49:01;15.40;99.90
1888;DHT22;944;51.574;6.980;2022-07-01T05:51:38;15.40;99.90
1888;DHT22;944;51.574;6.980;2022-07-01T05:54:05;15.30;99.90
1888;DHT22;944;51.574;6.980;2022-07-01T05:56:32;15.30;99.90
1888;DHT22;944;51.574;6.980;2022-07-01T05:59:01;15.30;99.90
1888;DHT22;944;51.574;6.980;2022-07-01T06:01:28;15.30;99.90
1888;DHT22;944;51.574;6.980;2022-07-01T06:03:57;15.30;99.90
1888;DHT22;944;51.574;6.980;2022-07-01T06:06:28;15.30;99.90
1888;DHT22;944;51.574;6.980;2022-07-01T06:08:56;15.10;99.90
1888;DHT22;944;51.574;6.980;2022-07-01T06:11:25;15.20;99.90
1888;DHT22;944;51.574;6.980;2022-07-01T06:13:52;15.20;99.90
1888;DHT22;944;51.574;6.980;2022-07-01T06:16:19;15.30;99.90
1888;DHT22;944;51.574;6.980;2022-07-01T06:18:46;15.30;99.90
1888;DHT22;944;51.574;6.980;2022-07-01T06:21:15;15.50;99.90
1888;DHT22;944;51.574;6.980;2022-07-01T06:27:23;15.40;99.90
1888;DHT22;944;51.574;6.980;2022-07-01T06:29:50;15.50;99.90
1888;DHT22;944;51.574;6.980;2022-07-01T06:32:21;15.60;99.90
1888;DHT22;944;51.574;6.980;2022-07-01T06:34:48;15.60;99.90
1888;DHT22;944;51.574;6.980;2022-07-01T06:37:16;15.70;99.90
1888;DHT22;944;51.574;6.980;2022-07-01T06:39:45;15.70;99.90
1888;DHT22;944;51.574;6.980;2022-07-01T06:45:53;15.90;99.90
1888;DHT22;944;51.574;6.980;2022-07-01T06:48:21;16.20;99.90
1888;DHT22;944;51.574;6.980;2022-07-01T06:54:48;16.30;99.90
1888;DHT22;944;51.574;6.980;2022-07-01T06:57:20;16.40;99.90
1888;DHT22;944;51.574;6.980;2022-07-01T06:59:47;16.40;99.90
1888;DHT22;944;51.574;6.980;2022-07-01T07:02:15;16.50;99.90
1888;DHT22;944;51.574;6.980;2022-07-01T07:04:42;16.40;99.90
1888;DHT22;944;51.574;6.980;2022-07-01T07:07:09;16.40;99.90
1888;DHT22;944;51.574;6.980;2022-07-01T07:09:36;16.50;99.90
1888;DHT22;944;51.574;6.980;2022-07-01T07:12:05;16.60;99.90
1888;DHT22;944;51.574;6.980;2022-07-01T07:14:32;16.70;99.90
1888;DHT22;944;51.574;6.980;2022-07-01T07:16:59;16.70;99.90
1888;DHT22;944;51.574;6.980;2022-07-01T07:19:26;16.70;99.90
1888;DHT22;944;51.574;6.980;2022-07-01T07:21:53;16.70;99.90
1888;DHT22;944;51.574;6.980;2022-07-01T07:24:21;16.90;99.90
1888;DHT22;944;51.574;6.980;2022-07-01T07:26:48;17.00;99.90
1888;DHT22;944;51.574;6.980;2022-07-01T07:29:17;17.00;99.90
1888;DHT22;944;51.574;6.980;2022-07-01T07:31:44;17.30;99.90
1888;DHT22;944;51.574;6.980;2022-07-01T07:34:11;17.40;99.90
1888;DHT22;944;51.574;6.980;2022-07-01T07:36:38;17.50;99.90
1888;DHT22;944;51.574;6.980;2022-07-01T07:39:05;17.50;99.90
1888;DHT22;944;51.574;6.980;2022-07-01T07:41:32;17.50;99.90
1888;DHT22;944;51.574;6.980;2022-07-01T07:43:59;17.40;99.90
1888;DHT22;944;51.574;6.980;2022-07-01T07:46:27;17.50;99.90
1888;DHT22;944;51.574;6.980;2022-07-01T07:48:54;17.50;99.90
1888;DHT22;944;51.574;6.980;2022-07-01T07:51:21;17.60;99.90
1888;DHT22;944;51.574;6.980;2022-07-01T07:57:29;17.50;99.90
1888;DHT22;944;51.574;6.980;2022-07-01T08:03:38;17.40;99.90
1888;DHT22;944;51.574;6.980;2022-07-01T08:06:05;17.30;99.90
1888;DHT22;944;51.574;6.980;2022-07-01T08:08:36;17.40;99.90
1888;DHT22;944;51.574;6.980;2022-07-01T08:11:03;17.60;99.90
1888;DHT22;944;51.574;6.980;2022-07-01T08:13:31;17.70;99.90
1888;DHT22;944;51.574;6.980;2022-07-01T08:15:58;17.90;99.90
1888;DHT22;944;51.574;6.980;2022-07-01T08:18:25;17.80;99.90
1888;DHT22;944;51.574;6.980;2022-07-01T08:20:53;17.70;99.90
1888;DHT22;944;51.574;6.980;2022-07-01T08:23:21;17.50;99.90
1888;DHT22;944;51.574;6.980;2022-07-01T08:25:49;17.50;99.90
1888;DHT22;944;51.574;6.980;2022-07-01T08:28:16;17.50;99.90
1888;DHT22;944;51.574;6.980;2022-07-01T08:30:44;17.30;99.90
1888;DHT22;944;51.574;6.980;2022-07-01T08:33:13;17.20;99.90
1888;DHT22;944;51.574;6.980;2022-07-01T08:35:40;17.30;99.90
1888;DHT22;944;51.574;6.980;2022-07-01T08:38:09;17.40;99.90
1888;DHT22;944;51.574;6.980;2022-07-01T08:40:36;17.90;99.90
1888;DHT22;944;51.574;6.980;2022-07-01T08:43:06;18.30;99.90
1888;DHT22;944;51.574;6.980;2022-07-01T08:45:34;18.50;99.90
1888;DHT22;944;51.574;6.980;2022-07-01T08:48:04;18.70;99.90
1888;DHT22;944;51.574;6.980;2022-07-01T08:50:34;18.70;99.90
1888;DHT22;944;51.574;6.980;2022-07-01T08:53:03;18.80;99.90
1888;DHT22;944;51.574;6.980;2022-07-01T08:55:34;18.90;99.90
1888;DHT22;944;51.574;6.980;2022-07-01T08:58:22;18.90;99.90
1888;DHT22;944;51.574;6.980;2022-07-01T09:00:50;19.00;99.90
1888;DHT22;944;51.574;6.980;2022-07-01T09:03:21;19.40;99.90
1888;DHT22;944;51.574;6.980;2022-07-01T09:05:50;19.50;99.90
1888;DHT22;944;51.574;6.980;2022-07-01T09:08:20;19.40;99.90
1888;DHT22;944;51.574;6.980;2022-07-01T09:10:48;19.00;99.90
1888;DHT22;944;51.574;6.980;2022-07-01T09:13:15;18.90;99.90
1888;DHT22;944;51.574;6.980;2022-07-01T09:15:42;19.40;99.90
1888;DHT22;944;51.574;6.980;2022-07-01T09:18:12;19.50;99.90
1888;DHT22;944;51.574;6.980;2022-07-01T09:20:41;19.90;99.90
1888;DHT22;944;51.574;6.980;2022-07-01T09:23:11;20.00;99.90
1888;DHT22;944;51.574;6.980;2022-07-01T09:25:40;20.30;99.90
1888;DHT22;944;51.574;6.980;2022-07-01T09:28:12;20.40;99.90
1888;DHT22;944;51.574;6.980;2022-07-01T09:34:20;20.10;99.90
1888;DHT22;944;51.574;6.980;2022-07-01T09:37:15;20.10;99.90
1888;DHT22;944;51.574;6.980;2022-07-01T09:39:44;20.10;99.90
1888;DHT22;944;51.574;6.980;2022-07-01T09:42:12;20.50;99.90
1888;DHT22;944;51.574;6.980;2022-07-01T09:48:14;21.60;99.90
1888;DHT22;944;51.574;6.980;2022-07-01T09:54:21;21.10;99.90
1888;DHT22;944;51.574;6.980;2022-07-01T09:56:48;20.50;99.90
1888;DHT22;944;51.574;6.980;2022-07-01T10:07:26;20.10;99.90
1888;DHT22;944;51.574;6.980;2022-07-01T10:10:12;20.40;99.90
1888;DHT22;944;51.574;6.980;2022-07-01T10:12:56;20.70;99.90
1888;DHT22;944;51.574;6.980;2022-07-01T10:15:28;20.80;99.90
1888;DHT22;944;51.574;6.980;2022-07-01T10:21:36;20.60;99.90
1888;DHT22;944;51.574;6.980;2022-07-01T10:24:15;20.50;99.90
1888;DHT22;944;51.574;6.980;2022-07-01T10:26:44;20.40;99.90
1888;DHT22;944;51.574;6.980;2022-07-01T10:29:27;20.50;99.90
1888;DHT22;944;51.574;6.980;2022-07-01T10:32:27;20.50;99.90
1888;DHT22;944;51.574;6.980;2022-07-01T10:35:04;20.50;99.90
1888;DHT22;944;51.574;6.980;2022-07-01T10:37:32;20.50;99.90
1888;DHT22;944;51.574;6.980;2022-07-01T10:40:02;20.70;99.90
1888;DHT22;944;51.574;6.980;2022-07-01T10:46:39;20.70;99.90
1888;DHT22;944;51.574;6.980;2022-07-01T10:53:04;20.60;99.90
1888;DHT22;944;51.574;6.980;2022-07-01T10:55:42;20.80;99.90
1888;DHT22;944;51.574;6.980;2022-07-01T11:01:52;20.60;99.90
1888;DHT22;944;51.574;6.980;2022-07-01T11:04:19;20.50;99.90
1888;DHT22;944;51.574;6.980;2022-07-01T11:06:49;20.40;99.90
1888;DHT22;944;51.574;6.980;2022-07-01T11:10:15;20.50;99.90
1888;DHT22;944;51.574;6.980;2022-07-01T11:12:52;20.60;99.90
1888;DHT22;944;51.574;6.980;2022-07-01T11:15:27;21.10;99.90
1888;DHT22;944;51.574;6.980;2022-07-01T11:17:57;21.20;99.90
1888;DHT22;944;51.574;6.980;2022-07-01T11:20:26;21.60;99.90
1888;DHT22;944;51.574;6.980;2022-07-01T11:26:38;21.60;99.90
1888;DHT22;944;51.574;6.980;2022-07-01T11:29:09;21.90;99.90
1888;DHT22;944;51.574;6.980;2022-07-01T11:31:36;21.60;99.90
1888;DHT22;944;51.574;6.980;2022-07-01T11:34:04;21.30;99.90
1888;DHT22;944;51.574;6.980;2022-07-01T11:40:15;21.10;99.90
1888;DHT22;944;51.574;6.980;2022-07-01T11:46:27;20.90;99.90
1888;DHT22;944;51.574;6.980;2022-07-01T11:48:56;20.90;99.90
1888;DHT22;944;51.574;6.980;2022-07-01T11:55:05;21.10;99.90
1888;DHT22;944;51.574;6.980;2022-07-01T11:57:36;21.30;99.90
1888;DHT22;944;51.574;6.980;2022-07-01T12:00:09;21.20;99.90
1888;DHT22;944;51.574;6.980;2022-07-01T12:02:39;21.10;99.90
1888;DHT22;944;51.574;6.980;2022-07-01T12:08:47;21.20;99.90
1888;DHT22;944;51.574;6.980;2022-07-01T12:11:15;21.20;99.90
1888;DHT22;944;51.574;6.980;2022-07-01T12:13:44;20.90;99.90
1888;DHT22;944;51.574;6.980;2022-07-01T12:16:12;20.80;99.90
1888;DHT22;944;51.574;6.980;2022-07-01T12:18:51;21.00;99.90
1888;DHT22;944;51.574;6.980;2022-07-01T12:21:18;21.00;99.90
1888;DHT22;944;51.574;6.980;2022-07-01T12:24:09;20.80;99.90
1888;DHT22;944;51.574;6.980;2022-07-01T12:26:51;20.90;99.90
1888;DHT22;944;51.574;6.980;2022-07-01T12:29:22;20.60;99.90
1888;DHT22;944;51.574;6.980;2022-07-01T12:31:58;20.50;99.90
1888;DHT22;944;51.574;6.980;2022-07-01T12:34:42;20.80;99.90
1888;DHT22;944;51.574;6.980;2022-07-01T12:37:11;21.00;99.90
1888;DHT22;944;51.574;6.980;2022-07-01T12:39:43;21.20;99.90
1888;DHT22;944;51.574;6.980;2022-07-01T12:45:52;21.10;99.90
1888;DHT22;944;51.574;6.980;2022-07-01T12:48:19;21.40;99.90
1888;DHT22;944;51.574;6.980;2022-07-01T12:50:47;21.40;99.90
1888;DHT22;944;51.574;6.980;2022-07-01T12:53:18;21.40;99.90
1888;DHT22;944;51.574;6.980;2022-07-01T12:55:48;21.30;99.90
1888;DHT22;944;51.574;6.980;2022-07-01T12:58:17;21.40;99.90
1888;DHT22;944;51.574;6.980;2022-07-01T13:00:47;21.50;99.90
1888;DHT22;944;51.574;6.980;2022-07-01T13:03:20;21.50;99.90
1888;DHT22;944;51.574;6.980;2022-07-01T13:09:39;21.40;99.90
1888;DHT22;944;51.574;6.980;2022-07-01T13:16:26;21.40;99.90
1888;DHT22;944;51.574;6.980;2022-07-01T13:18:53;21.30;99.90
1888;DHT22;944;51.574;6.980;2022-07-01T13:21:20;21.50;99.90
1888;DHT22;944;51.574;6.980;2022-07-01T13:23:48;21.80;99.90
1888;DHT22;944;51.574;6.980;2022-07-01T13:26:19;21.80;99.90
1888;DHT22;944;51.574;6.980;2022-07-01T13:28:49;21.70;99.90
1888;DHT22;944;51.574;6.980;2022-07-01T13:31:18;21.50;99.90
1888;DHT22;944;51.574;6.980;2022-07-01T13:33:45;21.50;99.90
1888;DHT22;944;51.574;6.980;2022-07-01T13:36:12;21.60;99.90
1888;DHT22;944;51.574;6.980;2022-07-01T16:33:25;22.40;99.90
1888;DHT22;944;51.574;6.980;2022-07-01T16:43:16;22.10;99.90
1888;DHT22;944;51.574;6.980;2022-07-01T16:55:43;21.80;99.90
1888;DHT22;944;51.574;6.980;2022-07-01T17:11:55;21.50;99.90
1888;DHT22;944;51.574;6.980;2022-07-01T17:14:24;21.30;99.90
1888;DHT22;944;51.574;6.980;2022-07-01T17:16:52;21.50;99.90
1888;DHT22;944;51.574;6.980;2022-07-01T17:19:19;21.60;99.90
1888;DHT22;944;51.574;6.980;2022-07-01T17:21:46;21.70;99.90
1888;DHT22;944;51.574;6.980;2022-07-01T17:24:14;21.60;99.90
1888;DHT22;944;51.574;6.980;2022-07-01T17:26:48;21.60;99.90
1888;DHT22;944;51.574;6.980;2022-07-01T17:29:25;21.60;99.90
1888;DHT22;944;51.574;6.980;2022-07-01T17:32:00;21.50;99.90
1888;DHT22;944;51.574;6.980;2022-07-01T17:34:30;21.50;99.90
1888;DHT22;944;51.574;6.980;2022-07-01T17:37:00;21.40;99.90
1888;DHT22;944;51.574;6.980;2022-07-01T17:47:14;21.20;99.90
1888;DHT22;944;51.574;6.980;2022-07-01T17:50:12;21.20;99.90
1888;DHT22;944;51.574;6.980;2022-07-01T17:53:18;21.10;99.90
1888;DHT22;944;51.574;6.980;2022-07-01T17:56:14;21.00;99.90
1888;DHT22;944;51.574;6.980;2022-07-01T17:59:44;20.90;99.90
1888;DHT22;944;51.574;6.980;2022-07-01T18:25:06;20.50;99.90
1888;DHT22;944;51.574;6.980;2022-07-01T18:31:54;20.20;99.90
1888;DHT22;944;51.574;6.980;2022-07-01T18:38:29;19.90;99.90
1888;DHT22;944;51.574;6.980;2022-07-01T18:41:00;19.70;99.90
1888;DHT22;944;51.574;6.980;2022-07-01T18:43:34;19.60;99.90
1888;DHT22;944;51.574;6.980;2022-07-01T18:46:37;19.50;99.90
1888;DHT22;944;51.574;6.980;2022-07-01T18:49:26;19.50;99.90
1888;DHT22;944;51.574;6.980;2022-07-01T18:52:33;19.30;99.90
1888;DHT22;944;51.574;6.980;2022-07-01T18:55:31;19.20;99.90
1888;DHT22;944;51.574;6.980;2022-07-01T18:58:25;19.10;99.90
1888;DHT22;944;51.574;6.980;2022-07-01T19:01:17;19.00;99.90
1888;DHT22;944;51.574;6.980;2022-07-01T19:03:53;18.90;99.90
1888;DHT22;944;51.574;6.980;2022-07-01T19:06:30;18.80;99.90
1888;DHT22;944;51.574;6.980;2022-07-01T19:09:19;18.80;99.90
1888;DHT22;944;51.574;6.980;2022-07-01T19:15:06;18.70;99.90
1888;DHT22;944;51.574;6.980;2022-07-01T20:36:28;17.00;99.90
1888;DHT22;944;51.574;6.980;2022-07-01T20:42:42;16.90;99.90
1888;DHT22;944;51.574;6.980;2022-07-01T20:45:20;17.00;99.90
1888;DHT22;944;51.574;6.980;2022-07-01T20:47:57;17.00;99.90
1888;DHT22;944;51.574;6.980;2022-07-01T20:50:46;16.80;99.90
1888;DHT22;944;51.574;6.980;2022-07-01T21:01:42;16.80;99.90
1888;DHT22;944;51.574;6.980;2022-07-01T21:09:14;16.80;99.90
1888;DHT22;944;51.574;6.980;2022-07-01T21:53:33;15.90;99.90
1888;DHT22;944;51.574;6.980;2022-07-01T21:56:02;15.80;99.90
1888;DHT22;944;51.574;6.980;2022-07-01T21:58:30;15.80;99.90
1888;DHT22;944;51.574;6.980;2022-07-01T22:01:00;15.60;99.90
1888;DHT22;944;51.574;6.980;2022-07-01T22:03:29;15.60;99.90
1888;DHT22;944;51.574;6.980;2022-07-01T22:05:56;15.60;99.90
1888;DHT22;944;51.574;6.980;2022-07-01T22:08:43;15.60;99.90
1888;DHT22;944;51.574;6.980;2022-07-01T22:11:10;15.60;99.90
1888;DHT22;944;51.574;6.980;2022-07-01T22:13:47;15.70;99.90
1888;DHT22;944;51.574;6.980;2022-07-01T22:16:22;15.70;99.90
1888;DHT22;944;51.574;6.980;2022-07-01T22:18:54;15.70;99.90
1888;DHT22;944;51.574;6.980;2022-07-01T22:21:25;15.70;99.90
1888;DHT22;944;51.574;6.980;2022-07-01T22:23:56;15.70;99.90
1888;DHT22;944;51.574;6.980;2022-07-01T22:26:28;15.70;99.90
1888;DHT22;944;51.574;6.980;2022-07-01T22:28:59;15.80;99.90
1888;DHT22;944;51.574;6.980;2022-07-01T22:31:26;15.70;99.90
1888;DHT22;944;51.574;6.980;2022-07-01T22:33:54;15.80;99.90
1888;DHT22;944;51.574;6.980;2022-07-01T22:36:21;15.80;99.90
1888;DHT22;944;51.574;6.980;2022-07-01T22:38:48;15.80;99.90
1888;DHT22;944;51.574;6.980;2022-07-01T22:41:18;15.70;99.90
1888;DHT22;944;51.574;6.980;2022-07-01T22:43:45;15.70;99.90
1888;DHT22;944;51.574;6.980;2022-07-01T22:46:25;15.70;99.90
1888;DHT22;944;51.574;6.980;2022-07-01T22:48:57;15.70;99.90
1888;DHT22;944;51.574;6.980;2022-07-01T22:51:38;15.50;99.90
1888;DHT22;944;51.574;6.980;2022-07-01T22:54:28;15.60;99.90
1888;DHT22;944;51.574;6.980;2022-07-01T22:57:00;15.60;99.90
1888;DHT22;944;51.574;6.980;2022-07-01T22:59:30;15.50;99.90
1888;DHT22;944;51.574;6.980;2022-07-01T23:01:59;15.50;99.90
1888;DHT22;944;51.574;6.980;2022-07-01T23:04:34;15.40;99.90
1888;DHT22;944;51.574;6.980;2022-07-01T23:07:08;15.40;99.90
1888;DHT22;944;51.574;6.980;2022-07-01T23:09:45;15.30;99.90
1888;DHT22;944;51.574;6.980;2022-07-01T23:12:20;15.20;99.90
1888;DHT22;944;51.574;6.980;2022-07-01T23:15:00;15.20;99.90
1888;DHT22;944;51.574;6.980;2022-07-01T23:17:46;15.10;99.90
1888;DHT22;944;51.574;6.980;2022-07-01T23:20:14;15.10;99.90
1888;DHT22;944;51.574;6.980;2022-07-01T23:22:43;15.10;99.90
1888;DHT22;944;51.574;6.980;2022-07-01T23:25:11;15.00;99.90
1888;DHT22;944;51.574;6.980;2022-07-01T23:27:41;15.00;99.90
1888;DHT22;944;51.574;6.980;2022-07-01T23:30:09;15.00;99.90
1888;DHT22;944;51.574;6.980;2022-07-01T23:32:37;15.00;99.90
1888;DHT22;944;51.574;6.980;2022-07-01T23:35:07;15.00;99.90
1888;DHT22;944;51.574;6.980;2022-07-01T23:37:35;14.90;99.90
1888;DHT22;944;51.574;6.980;2022-07-01T23:40:05;14.90;99.90
1888;DHT22;944;51.574;6.980;2022-07-01T23:42:33;15.00;99.90
1888;DHT22;944;51.574;6.980;2022-07-01T23:45:01;15.00;99.90
1888;DHT22;944;51.574;6.980;2022-07-01T23:47:28;15.00;99.90
1888;DHT22;944;51.574;6.980;2022-07-01T23:50:01;15.00;99.90
1888;DHT22;944;51.574;6.980;2022-07-01T23:52:28;15.00;99.90
1888;DHT22;944;51.574;6.980;2022-07-01T23:54:55;15.00;99.90
1888;DHT22;944;51.574;6.980;2022-07-01T23:57:24;15.00;99.90
1888;DHT22;944;51.574;6.980;2022-07-01T23:59:51;15.10;99.90
